Time;durP1;ratioP1;P1;durP2;ratioP2;P2;SDS_P1;SDS_P2;PMS_P1;PMS_P2;Temp;Humidity;BMP_temperature;BMP_pressure;BME280_temperature;BME280_humidity;BME280_pressure;Samples;Min_cycle;Max_cycle;Signal;HPM_P1;HPM_P2
2021/11/02 00:00:55;;;;;;;5.10;3.08;;;9.40;85.50;;;;;;5076904;28;20016;-72
2021/11/02 00:03:20;;;;;;;4.47;2.78;;;9.30;85.50;;;;;;5074089;28;20093;-72
2021/11/02 00:05:46;;;;;;;5.25;3.08;;;9.30;85.60;;;;;;5070562;28;20103;-73
2021/11/02 00:08:11;;;;;;;3.60;2.60;;;9.30;85.70;;;;;;5071922;28;20028;-72
2021/11/02 00:10:37;;;;;;;4.43;2.80;;;9.30;85.70;;;;;;5072589;28;20020;-72
2021/11/02 00:13:03;;;;;;;3.65;2.20;;;9.30;85.70;;;;;;5070416;28;20134;-72
2021/11/02 00:15:31;;;;;;;5.30;3.05;;;9.30;85.70;;;;;;5070809;28;20647;-72
2021/11/02 00:18:01;;;;;;;4.75;2.70;;;9.30;85.70;;;;;;5070300;28;20017;-72
2021/11/02 00:20:26;;;;;;;4.10;2.67;;;9.20;85.80;;;;;;5067911;28;20077;-72
2021/11/02 00:22:56;;;;;;;5.95;3.15;;;9.20;85.70;;;;;;5071103;28;20114;-73
2021/11/02 00:25:24;;;;;;;4.68;2.70;;;9.20;85.80;;;;;;5075510;28;20024;-73
2021/11/02 00:27:50;;;;;;;4.20;2.42;;;9.10;85.70;;;;;;5075063;28;20094;-72
2021/11/02 00:30:18;;;;;;;3.97;2.42;;;9.20;85.80;;;;;;5071891;28;20032;-73
2021/11/02 00:32:47;;;;;;;5.22;2.50;;;9.20;85.70;;;;;;5072960;28;20081;-72
2021/11/02 00:35:14;;;;;;;5.13;2.88;;;9.20;85.70;;;;;;5068747;28;20116;-73
2021/11/02 00:37:40;;;;;;;4.10;2.45;;;9.20;85.70;;;;;;5071746;28;20028;-73
2021/11/02 00:40:07;;;;;;;3.53;2.03;;;9.10;85.70;;;;;;5072419;28;20032;-73
2021/11/02 00:42:38;;;;;;;4.97;2.63;;;9.20;85.70;;;;;;5069972;28;20111;-73
2021/11/02 00:45:11;;;;;;;4.57;2.50;;;9.20;85.60;;;;;;5068195;28;20051;-72
2021/11/02 00:47:37;;;;;;;3.50;2.42;;;9.20;85.60;;;;;;5076318;28;20032;-73
2021/11/02 00:50:11;;;;;;;3.25;2.25;;;9.10;85.50;;;;;;5071134;28;20435;-72
2021/11/02 00:52:38;;;;;;;3.60;2.13;;;9.10;85.50;;;;;;5067502;28;20112;-73
2021/11/02 00:55:05;;;;;;;4.05;2.67;;;9.20;85.60;;;;;;5068056;28;20035;-72
2021/11/02 00:57:31;;;;;;;6.28;2.63;;;9.10;85.40;;;;;;5070148;28;20186;-73
2021/11/02 00:59:56;;;;;;;4.97;3.03;;;9.10;85.50;;;;;;5070822;28;20096;-72
2021/11/02 01:02:22;;;;;;;5.40;2.88;;;9.00;85.40;;;;;;5068954;28;20040;-73
2021/11/02 01:04:48;;;;;;;3.22;2.40;;;9.00;85.50;;;;;;5067248;28;20091;-72
2021/11/02 01:07:14;;;;;;;4.10;2.80;;;9.00;85.50;;;;;;5068987;28;20044;-72
2021/11/02 01:09:42;;;;;;;4.78;2.88;;;8.90;86.20;;;;;;5067839;28;20028;-72
2021/11/02 01:12:08;;;;;;;4.80;3.20;;;8.90;85.60;;;;;;5068773;28;20029;-72
2021/11/02 01:14:33;;;;;;;4.38;2.92;;;8.90;85.70;;;;;;5066267;28;20029;-72
2021/11/02 01:16:59;;;;;;;4.13;2.78;;;8.90;85.80;;;;;;5066263;28;20039;-72
2021/11/02 01:19:24;;;;;;;4.95;3.05;;;8.90;85.80;;;;;;5063393;28;20008;-73
2021/11/02 01:21:50;;;;;;;5.18;2.67;;;8.90;85.80;;;;;;5068328;28;20056;-72
2021/11/02 01:24:15;;;;;;;3.60;2.60;;;8.90;85.90;;;;;;5070266;28;20031;-73
2021/11/02 01:26:41;;;;;;;5.68;2.88;;;8.90;85.80;;;;;;5069113;28;20478;-73
2021/11/02 01:29:06;;;;;;;4.13;2.65;;;8.90;85.80;;;;;;5069182;28;20046;-73
2021/11/02 01:31:32;;;;;;;4.38;2.67;;;8.90;85.80;;;;;;5067706;28;20025;-73
2021/11/02 01:33:58;;;;;;;4.82;2.88;;;8.90;85.70;;;;;;5069618;28;20032;-72
2021/11/02 01:36:24;;;;;;;4.72;2.75;;;8.90;85.70;;;;;;5069909;28;20066;-73
2021/11/02 01:38:50;;;;;;;6.47;3.30;;;8.90;85.70;;;;;;5069879;28;20274;-72
2021/11/02 01:41:18;;;;;;;5.20;2.90;;;8.80;85.60;;;;;;5069420;28;20087;-73
2021/11/02 01:43:45;;;;;;;5.32;2.50;;;8.90;85.70;;;;;;5069239;28;20024;-73
2021/11/02 01:46:28;;;;;;;3.50;2.33;;;8.80;85.60;;;;;;5071827;28;20368;-72
2021/11/02 01:48:55;;;;;;;4.47;2.70;;;8.80;86.30;;;;;;5067795;28;20027;-71
2021/11/02 01:51:22;;;;;;;5.05;2.60;;;8.80;85.60;;;;;;5068219;28;20032;-71
2021/11/02 01:53:48;;;;;;;7.05;2.67;;;8.80;85.60;;;;;;5069955;28;20021;-71
2021/11/02 01:56:14;;;;;;;5.60;3.00;;;8.80;85.60;;;;;;5069152;28;20029;-71
2021/11/02 01:58:44;;;;;;;6.13;2.70;;;8.80;85.60;;;;;;5070360;28;20016;-71
2021/11/02 02:01:13;;;;;;;5.20;2.50;;;8.70;85.60;;;;;;5068910;28;20487;-72
2021/11/02 02:04:00;;;;;;;4.43;2.58;;;8.70;85.70;;;;;;5070882;28;20417;-71
2021/11/02 02:06:51;;;;;;;4.15;2.40;;;8.80;85.70;;;;;;5066231;28;20135;-72
2021/11/02 02:09:42;;;;;;;4.43;2.40;;;8.80;85.70;;;;;;5069905;28;20032;-71
2021/11/02 02:12:42;;;;;;;5.88;2.78;;;8.70;85.60;;;;;;5069088;28;20033;-71
2021/11/02 02:15:20;;;;;;;4.63;2.88;;;8.70;85.60;;;;;;5069368;28;20037;-71
2021/11/02 02:17:56;;;;;;;3.55;2.28;;;8.70;85.70;;;;;;5067086;28;20029;-71
2021/11/02 02:20:53;;;;;;;4.13;2.35;;;8.70;85.60;;;;;;5068222;28;20844;-71
2021/11/02 02:23:32;;;;;;;4.82;2.78;;;8.70;85.60;;;;;;5065423;28;20025;-71
2021/11/02 02:26:07;;;;;;;3.65;2.40;;;8.70;85.50;;;;;;5068354;28;20116;-71
2021/11/02 02:28:37;;;;;;;4.45;2.53;;;8.70;85.60;;;;;;5067340;28;20502;-71
2021/11/02 02:31:06;;;;;;;4.70;2.72;;;8.70;85.70;;;;;;5066175;28;20058;-71
2021/11/02 02:33:39;;;;;;;4.72;2.58;;;8.70;85.60;;;;;;5066129;28;20753;-71
2021/11/02 02:36:05;;;;;;;4.82;2.47;;;8.70;85.60;;;;;;5071070;28;20041;-72
2021/11/02 02:38:35;;;;;;;4.72;2.30;;;8.70;85.60;;;;;;5071330;28;20086;-71
2021/11/02 02:41:02;;;;;;;4.18;2.83;;;8.70;85.50;;;;;;5072396;28;20035;-72
2021/11/02 02:43:28;;;;;;;3.25;2.20;;;8.70;85.50;;;;;;5073101;28;20025;-72
2021/11/02 02:45:57;;;;;;;4.95;2.58;;;8.70;85.50;;;;;;5068193;28;20032;-72
2021/11/02 02:48:23;;;;;;;4.25;2.70;;;8.60;85.40;;;;;;5070276;28;20047;-71
2021/11/02 02:50:51;;;;;;;5.13;2.92;;;8.60;85.50;;;;;;5072366;28;20028;-72
2021/11/02 02:53:19;;;;;;;4.20;2.70;;;8.60;85.50;;;;;;5070327;28;20038;-71
2021/11/02 02:55:46;;;;;;;4.80;3.10;;;8.50;85.50;;;;;;5072166;28;20608;-71
2021/11/02 02:58:13;;;;;;;5.00;2.70;;;8.40;85.50;;;;;;5071146;28;20029;-70
2021/11/02 03:00:41;;;;;;;3.40;2.20;;;8.40;85.70;;;;;;5076765;28;20743;-71
2021/11/02 03:03:08;;;;;;;4.40;1.90;;;8.40;85.80;;;;;;5071681;28;20029;-72
2021/11/02 03:05:34;;;;;;;3.10;2.10;;;8.50;85.70;;;;;;5069191;28;20139;-70
2021/11/02 03:08:00;;;;;;;4.40;2.75;;;8.50;86.30;;;;;;5074852;28;20122;-71
2021/11/02 03:10:26;;;;;;;3.80;2.35;;;8.50;85.60;;;;;;5075530;28;20074;-70
2021/11/02 03:12:53;;;;;;;2.13;1.92;;;8.50;85.70;;;;;;5079683;28;20036;-70
2021/11/02 03:18:40;;;;;;;2.67;2.20;;;8.50;85.60;;;;;;5070921;28;20036;-71
2021/11/02 03:48:44;;;;;;;2.55;2.00;;;8.60;85.20;;;;;;5069209;28;20056;-71
2021/11/02 03:57:01;;;;;;;2.42;2.08;;;8.50;85.20;;;;;;5067725;28;20113;-71
2021/11/02 04:24:46;;;;;;;2.85;2.08;;;8.30;85.10;;;;;;5074577;28;20035;-71
2021/11/02 04:44:14;;;;;;;2.53;2.00;;;8.20;85.10;;;;;;5074038;28;20051;-70
2021/11/02 05:54:29;;;;;;;3.33;1.70;;;8.20;84.90;;;;;;5073117;28;20033;-71
2021/11/02 05:57:13;;;;;;;2.78;2.13;;;8.20;84.90;;;;;;5071434;28;20483;-72
2021/11/02 05:59:45;;;;;;;2.65;2.03;;;8.20;84.90;;;;;;5081466;28;20016;-71
2021/11/02 06:02:38;;;;;;;3.50;2.22;;;8.20;84.90;;;;;;5065797;28;20387;-71
2021/11/02 06:05:25;;;;;;;2.00;1.80;;;8.20;85.00;;;;;;5069167;28;20024;-71
2021/11/02 06:28:11;;;;;;;2.22;1.65;;;8.20;84.90;;;;;;5074382;28;20178;-70
2021/11/02 06:30:42;;;;;;;2.75;2.03;;;8.20;84.90;;;;;;5072242;28;20518;-70
2021/11/02 06:44:05;;;;;;;2.45;1.70;;;8.20;84.80;;;;;;5077613;28;20408;-70
2021/11/02 06:52:50;;;;;;;2.67;2.05;;;8.20;84.80;;;;;;5072085;28;20114;-70
2021/11/02 06:55:38;;;;;;;2.35;1.80;;;8.20;84.80;;;;;;5075701;28;20446;-70
2021/11/02 08:47:30;;;;;;;5.15;3.70;;;8.80;86.00;;;;;;5064482;28;20058;-73
2021/11/02 08:49:57;;;;;;;4.07;2.95;;;8.80;86.20;;;;;;5065993;28;20025;-72
2021/11/02 08:52:23;;;;;;;5.18;3.00;;;8.80;86.30;;;;;;5068985;28;20059;-73
2021/11/02 08:54:52;;;;;;;3.33;2.70;;;8.90;86.40;;;;;;5065412;28;20107;-73
2021/11/02 08:57:22;;;;;;;6.40;3.42;;;8.90;86.30;;;;;;5067261;28;20168;-73
2021/11/02 08:59:48;;;;;;;3.58;2.38;;;9.00;86.30;;;;;;5067061;28;20024;-74
2021/11/02 09:02:29;;;;;;;4.05;3.10;;;9.00;86.20;;;;;;5065224;28;20029;-73
2021/11/02 09:05:11;;;;;;;6.82;4.05;;;9.00;86.10;;;;;;5065040;28;20480;-74
2021/11/02 09:07:37;;;;;;;3.87;2.80;;;9.00;86.30;;;;;;5066125;28;20077;-74
2021/11/02 09:10:19;;;;;;;3.85;3.20;;;9.00;86.40;;;;;;5067529;28;20119;-72
2021/11/02 09:12:49;;;;;;;3.95;3.03;;;9.10;86.40;;;;;;5068565;28;20502;-74
2021/11/02 09:15:16;;;;;;;4.35;2.97;;;9.10;86.40;;;;;;5064218;28;20044;-73
2021/11/02 09:17:45;;;;;;;4.07;3.20;;;9.20;86.30;;;;;;5066867;28;20091;-73
2021/11/02 09:20:12;;;;;;;4.80;2.95;;;9.20;86.30;;;;;;5067055;28;20051;-72
2021/11/02 09:22:40;;;;;;;3.72;2.92;;;9.30;86.30;;;;;;5066276;28;20115;-73
2021/11/02 09:25:06;;;;;;;5.57;3.17;;;9.30;86.20;;;;;;5065106;28;20515;-73
2021/11/02 09:27:32;;;;;;;5.70;3.30;;;9.30;86.20;;;;;;5063187;28;20020;-74
2021/11/02 09:29:58;;;;;;;3.83;2.60;;;9.30;86.20;;;;;;5067656;28;20111;-74
2021/11/02 09:32:24;;;;;;;4.38;3.33;;;9.40;86.20;;;;;;5061461;28;20699;-74
2021/11/02 09:34:51;;;;;;;3.10;2.75;;;9.40;86.80;;;;;;5065895;28;20020;-73
2021/11/02 09:37:31;;;;;;;6.18;3.75;;;9.40;86.20;;;;;;5064900;28;20041;-73
2021/11/02 09:40:13;;;;;;;4.72;3.10;;;9.40;86.20;;;;;;5074813;28;20039;-73
2021/11/02 09:43:23;;;;;;;4.28;3.10;;;9.40;86.20;;;;;;5064255;28;20032;-73
2021/11/02 09:46:04;;;;;;;4.03;2.80;;;9.40;86.20;;;;;;4982104;28;20066;-73
2021/11/02 09:48:38;;;;;;;4.65;2.97;;;9.40;86.40;;;;;;5056520;28;20039;-73
2021/11/02 09:51:25;;;;;;;5.57;3.50;;;9.40;86.30;;;;;;5063903;28;20029;-73
2021/11/02 09:54:07;;;;;;;3.55;2.60;;;9.50;86.40;;;;;;5068796;28;20458;-72
2021/11/02 09:56:46;;;;;;;2.47;2.28;;;9.50;86.30;;;;;;5068052;28;20063;-73
2021/11/02 09:59:36;;;;;;;4.63;2.95;;;9.60;86.30;;;;;;5067322;28;20500;-73
2021/11/02 10:02:15;;;;;;;4.43;3.00;;;9.70;86.20;;;;;;5078237;28;20029;-74
2021/11/02 10:04:49;;;;;;;3.38;3.03;;;9.70;86.10;;;;;;5065632;28;20161;-73
2021/11/02 10:07:40;;;;;;;3.90;3.05;;;9.60;86.10;;;;;;5071060;28;20024;-74
2021/11/02 10:10:22;;;;;;;6.50;4.80;;;9.60;86.20;;;;;;5073612;28;20097;-74
2021/11/02 10:13:00;;;;;;;6.70;4.60;;;9.60;86.30;;;;;;5072072;28;20082;-73
2021/11/02 10:15:27;;;;;;;6.30;5.28;;;9.50;86.60;;;;;;5070038;28;20386;-75
2021/11/02 10:18:15;;;;;;;5.32;4.20;;;9.50;86.90;;;;;;5063951;28;20677;-73
2021/11/02 10:21:17;;;;;;;3.95;2.80;;;9.50;87.30;;;;;;5066588;28;20036;-73
2021/11/02 10:24:19;;;;;;;4.43;2.90;;;9.50;87.30;;;;;;5061259;28;20029;-73
2021/11/02 10:26:56;;;;;;;4.20;3.20;;;9.60;87.20;;;;;;5059521;28;20031;-74
2021/11/02 10:29:22;;;;;;;6.35;4.00;;;9.60;87.20;;;;;;5067055;28;20016;-73
2021/11/02 10:32:03;;;;;;;4.90;3.75;;;9.60;87.20;;;;;;5059472;28;20640;-73
2021/11/02 10:35:00;;;;;;;5.55;4.18;;;9.70;87.30;;;;;;5066934;28;20020;-73
2021/11/02 10:37:39;;;;;;;6.03;3.67;;;9.70;87.30;;;;;;5054544;28;20506;-72
2021/11/02 10:40:07;;;;;;;4.20;3.35;;;9.70;87.40;;;;;;5050456;28;20070;-74
2021/11/02 10:42:53;;;;;;;6.90;4.78;;;9.70;87.30;;;;;;5055093;28;20025;-74
2021/11/02 10:45:23;;;;;;;4.95;3.88;;;9.80;87.30;;;;;;5060235;28;20036;-72
2021/11/02 10:48:04;;;;;;;5.90;4.00;;;9.80;87.30;;;;;;5052788;28;20151;-72
2021/11/02 10:50:36;;;;;;;5.53;4.13;;;9.80;87.30;;;;;;5056580;28;20466;-74
2021/11/02 10:53:04;;;;;;;5.25;4.38;;;9.80;87.40;;;;;;5064777;28;20033;-74
2021/11/02 10:55:50;;;;;;;5.82;4.00;;;9.90;87.40;;;;;;5071364;28;20055;-72
2021/11/02 10:58:36;;;;;;;9.43;5.45;;;9.90;87.50;;;;;;5063265;28;20529;-73
2021/11/02 11:01:07;;;;;;;7.80;5.40;;;9.80;87.50;;;;;;5075056;28;20107;-72
2021/11/02 11:03:35;;;;;;;7.47;5.55;;;9.90;87.50;;;;;;5072688;28;20390;-73
2021/11/02 11:06:03;;;;;;;5.72;4.07;;;9.90;87.60;;;;;;5069498;28;20062;-73
2021/11/02 11:08:41;;;;;;;6.75;5.40;;;9.90;87.60;;;;;;5070912;28;20024;-72
2021/11/02 11:11:12;;;;;;;6.30;4.32;;;9.90;87.60;;;;;;5069837;28;20483;-72
2021/11/02 11:13:45;;;;;;;5.63;4.05;;;10.00;87.70;;;;;;5073325;28;20107;-73
2021/11/02 11:16:19;;;;;;;4.82;4.13;;;10.00;87.60;;;;;;5080314;28;20694;-73
2021/11/02 11:19:10;;;;;;;6.20;4.05;;;10.10;87.60;;;;;;5067608;28;20044;-73
2021/11/02 11:21:37;;;;;;;5.80;3.53;;;10.10;87.50;;;;;;5069072;28;20100;-73
2021/11/02 11:24:34;;;;;;;6.28;5.00;;;10.20;87.50;;;;;;5069217;28;20036;-73
2021/11/02 11:27:05;;;;;;;5.68;4.03;;;10.20;87.40;;;;;;5048021;28;21004;-73
2021/11/02 11:29:34;;;;;;;4.87;3.50;;;10.20;87.30;;;;;;5066757;28;20040;-74
2021/11/02 11:32:00;;;;;;;4.70;3.45;;;10.20;87.20;;;;;;5067910;28;20024;-73
2021/11/02 11:34:36;;;;;;;6.38;4.20;;;10.30;87.10;;;;;;5068769;28;20060;-72
2021/11/02 11:37:02;;;;;;;5.10;4.00;;;10.40;87.00;;;;;;5070963;28;20067;-73
2021/11/02 11:39:30;;;;;;;4.63;2.90;;;10.40;86.90;;;;;;5069089;28;20028;-72
2021/11/02 11:41:57;;;;;;;5.55;3.42;;;10.40;86.80;;;;;;5064953;28;20725;-73
2021/11/02 11:44:23;;;;;;;6.53;3.80;;;10.50;86.70;;;;;;5067832;28;20075;-72
2021/11/02 11:46:58;;;;;;;6.75;4.50;;;10.50;86.70;;;;;;5066254;28;20033;-73
2021/11/02 11:49:26;;;;;;;6.32;3.60;;;10.50;86.50;;;;;;5067248;28;20395;-73
2021/11/02 11:51:59;;;;;;;6.38;4.10;;;10.60;86.50;;;;;;5069982;28;20013;-72
2021/11/02 11:54:30;;;;;;;7.20;4.95;;;10.70;86.40;;;;;;5065939;28;20115;-73
2021/11/02 11:57:02;;;;;;;7.68;4.25;;;10.60;86.30;;;;;;5064377;28;20040;-73
2021/11/02 11:59:28;;;;;;;5.87;4.53;;;10.70;86.30;;;;;;5067792;28;20059;-72
2021/11/02 12:02:20;;;;;;;5.10;4.43;;;10.70;86.20;;;;;;5069580;28;20062;-73
2021/11/02 12:04:52;;;;;;;5.50;4.15;;;10.70;86.20;;;;;;5063261;28;20071;-73
2021/11/02 12:07:30;;;;;;;5.35;4.20;;;10.60;86.10;;;;;;5075908;28;20028;-73
2021/11/02 12:10:05;;;;;;;6.13;5.40;;;10.70;86.20;;;;;;5075149;28;20040;-73
2021/11/02 12:12:31;;;;;;;5.28;4.00;;;10.70;86.10;;;;;;5064935;28;20035;-73
2021/11/02 12:14:59;;;;;;;5.82;4.13;;;10.70;86.00;;;;;;5070861;28;20635;-72
2021/11/02 12:17:28;;;;;;;5.75;4.47;;;10.60;85.90;;;;;;5064444;28;20548;-72
2021/11/02 12:20:07;;;;;;;6.15;4.75;;;10.60;85.90;;;;;;5060197;28;20021;-72
2021/11/02 12:22:39;;;;;;;4.97;4.20;;;10.80;85.90;;;;;;5066456;28;20040;-73
2021/11/02 12:25:09;;;;;;;5.72;4.47;;;10.80;85.90;;;;;;5066460;28;20024;-72
2021/11/02 12:27:42;;;;;;;6.28;5.00;;;10.90;85.80;;;;;;5066477;28;20108;-73
2021/11/02 12:30:10;;;;;;;4.55;4.03;;;10.90;85.70;;;;;;5072044;28;20503;-72
2021/11/02 12:32:39;;;;;;;5.40;4.55;;;10.90;85.60;;;;;;5066685;28;20024;-72
2021/11/02 12:35:13;;;;;;;7.43;5.28;;;10.90;85.60;;;;;;5059319;28;20028;-72
2021/11/02 12:37:51;;;;;;;5.00;3.78;;;10.90;85.50;;;;;;5072076;28;20036;-72
2021/11/02 12:40:23;;;;;;;6.50;3.92;;;10.90;85.40;;;;;;5072507;28;20073;-72
2021/11/02 12:42:49;;;;;;;9.40;6.13;;;10.90;85.40;;;;;;5071452;28;20029;-71
2021/11/02 12:45:18;;;;;;;6.45;4.38;;;10.90;85.20;;;;;;5073684;28;20012;-71
2021/11/02 12:47:46;;;;;;;6.30;3.50;;;10.90;85.20;;;;;;5074557;28;20028;-71
2021/11/02 12:50:13;;;;;;;3.75;3.08;;;11.00;85.30;;;;;;5071722;28;20032;-71
2021/11/02 12:52:40;;;;;;;3.42;3.08;;;11.00;85.20;;;;;;5069447;28;20471;-70
2021/11/02 12:55:14;;;;;;;3.10;2.80;;;11.10;85.10;;;;;;5071766;28;20024;-71
2021/11/02 12:57:48;;;;;;;5.88;4.00;;;11.00;85.10;;;;;;5066580;28;20035;-72
2021/11/02 13:00:26;;;;;;;6.53;4.30;;;11.10;85.20;;;;;;5068485;28;20025;-71
2021/11/02 13:02:58;;;;;;;6.93;4.63;;;11.00;85.10;;;;;;5069035;28;20029;-71
2021/11/02 13:05:26;;;;;;;6.60;4.53;;;11.10;85.20;;;;;;5069661;28;20039;-71
2021/11/02 13:08:21;;;;;;;6.95;5.18;;;11.00;85.10;;;;;;5072513;28;20028;-71
2021/11/02 13:10:48;;;;;;;5.82;4.85;;;11.00;85.00;;;;;;5071606;28;20024;-71
2021/11/02 13:13:16;;;;;;;5.65;4.15;;;11.00;85.00;;;;;;5068046;28;20028;-71
2021/11/02 13:15:55;;;;;;;3.13;2.78;;;11.10;85.00;;;;;;5070985;28;20047;-71
2021/11/02 13:18:39;;;;;;;6.82;4.93;;;11.20;85.00;;;;;;5068464;28;20098;-71
2021/11/02 13:21:19;;;;;;;7.20;5.40;;;11.10;84.70;;;;;;5069301;28;20040;-72
2021/11/02 13:23:51;;;;;;;6.68;4.63;;;11.10;84.70;;;;;;5067936;28;20033;-71
2021/11/02 13:26:19;;;;;;;5.40;3.55;;;11.10;84.80;;;;;;5068511;28;20031;-71
2021/11/02 13:28:46;;;;;;;5.43;4.25;;;11.10;84.70;;;;;;5067945;28;20028;-72
2021/11/02 13:31:25;;;;;;;5.20;4.70;;;11.20;84.70;;;;;;5070382;28;20038;-71
2021/11/02 13:34:09;;;;;;;5.38;4.18;;;11.20;84.70;;;;;;5072168;28;20091;-72
2021/11/02 13:36:36;;;;;;;3.83;3.40;;;11.20;84.60;;;;;;5070242;28;20028;-72
2021/11/02 13:39:11;;;;;;;6.07;4.40;;;11.30;84.60;;;;;;5069402;28;20490;-71
2021/11/02 13:41:39;;;;;;;6.60;4.40;;;11.30;84.50;;;;;;5069971;28;20028;-71
2021/11/02 13:44:10;;;;;;;4.97;4.22;;;11.40;84.50;;;;;;5071461;28;20099;-71
2021/11/02 13:46:44;;;;;;;6.22;4.25;;;11.50;84.40;;;;;;5071259;28;20029;-71
2021/11/02 13:49:11;;;;;;;5.53;4.60;;;11.50;84.30;;;;;;5071034;28;20055;-71
2021/11/02 13:51:37;;;;;;;7.10;5.35;;;11.50;84.30;;;;;;5071087;28;20039;-71
2021/11/02 13:54:04;;;;;;;6.03;4.32;;;11.40;84.20;;;;;;5067831;28;20031;-71
2021/11/02 13:56:32;;;;;;;5.60;4.32;;;11.50;84.30;;;;;;5065501;28;20059;-71
2021/11/02 13:58:59;;;;;;;3.30;2.58;;;11.50;84.20;;;;;;5066172;28;20024;-72
2021/11/02 14:01:40;;;;;;;4.57;3.40;;;11.50;84.20;;;;;;5066968;28;20017;-72
2021/11/02 14:04:17;;;;;;;5.50;3.97;;;11.50;84.20;;;;;;5070519;28;20119;-71
2021/11/02 14:06:47;;;;;;;5.35;3.78;;;11.50;84.10;;;;;;5078820;28;20028;-71
2021/11/02 14:09:15;;;;;;;6.07;3.80;;;11.50;84.10;;;;;;5070997;28;20060;-71
2021/11/02 14:11:42;;;;;;;4.30;3.22;;;11.40;84.00;;;;;;5067963;28;20031;-72
2021/11/02 14:14:27;;;;;;;5.20;4.03;;;11.40;84.10;;;;;;5071510;28;20513;-71
2021/11/02 14:16:53;;;;;;;4.43;3.78;;;11.40;84.00;;;;;;5067440;28;20382;-71
2021/11/02 14:19:33;;;;;;;5.53;4.45;;;11.40;84.00;;;;;;5069682;28;20027;-72
2021/11/02 14:22:01;;;;;;;6.20;4.50;;;11.30;83.80;;;;;;5076517;28;20089;-71
2021/11/02 14:24:44;;;;;;;4.55;3.88;;;11.30;83.90;;;;;;5070759;28;20021;-71
2021/11/02 14:27:20;;;;;;;5.53;4.10;;;11.20;83.70;;;;;;5066578;28;20362;-71
2021/11/02 14:29:56;;;;;;;3.58;3.00;;;11.20;83.70;;;;;;5077876;28;20038;-71
2021/11/02 14:32:40;;;;;;;3.80;3.20;;;11.20;83.90;;;;;;5074968;28;20025;-72
2021/11/02 14:35:10;;;;;;;3.90;3.00;;;11.10;83.80;;;;;;5063700;28;20025;-71
2021/11/02 14:37:47;;;;;;;4.30;3.03;;;11.10;83.90;;;;;;5079151;28;20398;-72
2021/11/02 14:40:27;;;;;;;4.30;3.03;;;11.10;84.00;;;;;;5079326;28;20070;-69
2021/11/02 14:42:55;;;;;;;4.65;2.80;;;11.10;84.10;;;;;;5071344;28;20081;-71
2021/11/02 14:45:49;;;;;;;2.55;2.22;;;11.10;84.20;;;;;;5073135;28;20486;-72
2021/11/02 14:48:32;;;;;;;3.42;2.08;;;11.20;84.30;;;;;;5066290;28;21633;-72
2021/11/02 14:50:57;;;;;;;;;;;11.10;84.20;;;;;;5076040;28;20601;-73
2021/11/02 14:53:29;;;;;;;2.13;1.70;;;11.20;84.10;;;;;;5077883;28;19991;-72
2021/11/02 14:56:03;;;;;;;1.40;1.30;;;11.10;84.10;;;;;;5071169;28;20497;-73
2021/11/02 14:58:55;;;;;;;2.28;1.23;;;11.00;83.90;;;;;;5072108;28;20037;-73
2021/11/02 15:01:33;;;;;;;1.38;1.20;;;10.90;83.90;;;;;;5064285;28;20036;-72
2021/11/02 15:04:09;;;;;;;1.40;1.20;;;10.80;83.90;;;;;;5067100;28;20025;-73
2021/11/02 15:06:44;;;;;;;1.58;1.48;;;10.80;84.00;;;;;;5072776;28;20055;-73
2021/11/02 15:09:13;;;;;;;1.70;1.40;;;10.70;83.80;;;;;;5075053;28;20024;-72
2021/11/02 15:11:39;;;;;;;1.50;1.40;;;10.60;84.10;;;;;;5072948;28;20116;-72
2021/11/02 15:14:11;;;;;;;1.55;1.45;;;10.60;84.10;;;;;;5073311;28;20035;-72
2021/11/02 15:16:50;;;;;;;1.73;1.50;;;10.50;84.10;;;;;;5072920;28;20040;-73
2021/11/02 15:19:18;;;;;;;1.50;1.40;;;10.40;84.20;;;;;;5072599;28;21590;-72
2021/11/02 15:21:46;;;;;;;1.60;1.50;;;10.30;84.20;;;;;;5080641;28;20057;-72
2021/11/02 15:24:26;;;;;;;1.40;1.30;;;10.20;84.30;;;;;;5067626;28;20031;-72
2021/11/02 15:26:58;;;;;;;1.20;1.10;;;10.20;84.50;;;;;;5062187;28;20056;-72
2021/11/02 15:29:26;;;;;;;1.40;1.30;;;10.20;84.50;;;;;;5079236;28;20095;-71
2021/11/02 15:32:08;;;;;;;1.33;1.23;;;10.20;84.50;;;;;;5076184;28;20565;-72
2021/11/02 15:34:39;;;;;;;2.28;1.70;;;10.20;84.70;;;;;;5072133;28;20032;-71
2021/11/02 15:37:11;;;;;;;1.60;1.50;;;10.10;84.60;;;;;;5060598;28;20449;-72
2021/11/02 15:39:37;;;;;;;1.97;1.60;;;10.10;84.70;;;;;;5074887;28;20086;-72
2021/11/02 15:42:04;;;;;;;1.38;1.27;;;10.10;84.80;;;;;;5070052;28;20064;-72
2021/11/02 15:44:30;;;;;;;1.85;1.73;;;10.20;84.80;;;;;;5082177;28;20040;-72
2021/11/02 15:46:56;;;;;;;2.35;1.70;;;10.10;84.70;;;;;;5063282;28;20086;-72
2021/11/02 15:49:23;;;;;;;2.03;1.83;;;10.20;84.70;;;;;;5077798;28;20024;-72
2021/11/02 15:51:56;;;;;;;1.90;1.80;;;10.10;84.80;;;;;;5067746;28;20064;-71
2021/11/02 15:54:23;;;;;;;2.00;1.80;;;10.10;84.80;;;;;;5072988;28;20021;-73
2021/11/02 15:56:49;;;;;;;1.90;1.80;;;10.20;84.90;;;;;;5069746;28;20025;-72
2021/11/02 15:59:21;;;;;;;2.15;1.88;;;10.20;84.90;;;;;;5077236;28;20035;-71
2021/11/02 16:01:49;;;;;;;;;;;10.20;84.80;;;;;;5068665;28;20016;-73
2021/11/02 16:04:20;;;;;;;3.53;2.17;;;10.20;84.80;;;;;;5075736;28;19909;-72
2021/11/02 16:07:01;;;;;;;2.08;1.88;;;10.10;85.70;;;;;;5075065;28;20484;-72
2021/11/02 16:09:49;;;;;;;3.00;2.60;;;10.20;85.20;;;;;;5069991;28;20031;-72
2021/11/02 16:12:20;;;;;;;3.13;2.60;;;10.20;85.00;;;;;;5073522;28;20309;-72
2021/11/02 16:14:55;;;;;;;3.42;3.10;;;10.20;85.10;;;;;;5069980;28;20028;-72
2021/11/02 16:17:22;;;;;;;2.72;2.50;;;10.20;85.20;;;;;;5077789;28;20028;-72
2021/11/02 16:19:54;;;;;;;2.95;2.60;;;10.20;85.20;;;;;;5069570;28;20025;-72
2021/11/02 16:22:21;;;;;;;3.80;3.33;;;10.30;85.20;;;;;;5075912;28;20075;-72
2021/11/02 16:25:01;;;;;;;3.97;3.42;;;10.20;85.20;;;;;;5073570;28;20026;-73
2021/11/02 16:27:27;;;;;;;3.10;2.80;;;10.20;85.40;;;;;;5076304;28;20652;-73
2021/11/02 16:29:52;;;;;;;2.40;1.85;;;10.20;85.40;;;;;;5075270;28;20036;-72
2021/11/02 16:32:36;;;;;;;2.65;2.25;;;10.20;85.40;;;;;;5072756;28;20025;-72
2021/11/02 16:35:01;;;;;;;2.40;2.20;;;10.30;85.50;;;;;;5070257;28;20039;-73
2021/11/02 16:37:33;;;;;;;2.10;1.90;;;10.30;85.40;;;;;;5066758;28;20032;-72
2021/11/02 16:40:19;;;;;;;2.60;2.40;;;10.30;85.50;;;;;;5073386;28;20025;-73
2021/11/02 16:42:56;;;;;;;2.40;2.20;;;10.30;85.50;;;;;;5074029;28;20050;-72
2021/11/02 16:45:24;;;;;;;3.03;2.72;;;10.30;85.50;;;;;;5071945;28;20528;-72
2021/11/02 16:47:57;;;;;;;3.40;3.10;;;10.30;86.10;;;;;;5065401;28;20052;-72
2021/11/02 16:50:29;;;;;;;2.95;2.47;;;10.20;85.60;;;;;;5066225;28;20035;-71
2021/11/02 16:53:13;;;;;;;3.20;2.72;;;10.20;85.70;;;;;;5076488;28;20028;-72
2021/11/02 16:55:40;;;;;;;3.15;2.83;;;10.20;85.80;;;;;;5085174;28;20052;-72
2021/11/02 16:58:27;;;;;;;2.83;2.47;;;10.20;85.80;;;;;;5075241;28;20399;-72
2021/11/02 17:01:15;;;;;;;3.15;2.58;;;10.10;85.80;;;;;;5067900;28;20100;-73
2021/11/02 17:03:42;;;;;;;2.90;2.50;;;10.10;85.90;;;;;;5068261;28;20024;-73
2021/11/02 17:06:20;;;;;;;3.67;2.50;;;10.10;86.00;;;;;;5076748;28;20070;-72
2021/11/02 17:08:51;;;;;;;2.33;2.10;;;10.10;86.00;;;;;;5072734;28;20031;-73
2021/11/02 17:11:21;;;;;;;1.73;1.63;;;10.10;86.00;;;;;;5075542;28;20109;-73
2021/11/02 17:13:48;;;;;;;3.42;2.15;;;10.10;86.10;;;;;;5070151;28;20027;-72
2021/11/02 17:16:21;;;;;;;4.25;2.33;;;10.10;86.00;;;;;;5066556;28;20379;-72
2021/11/02 17:19:01;;;;;;;2.13;1.80;;;10.00;85.90;;;;;;5071665;28;20074;-71
2021/11/02 17:21:30;;;;;;;4.57;2.47;;;10.00;85.80;;;;;;5069381;28;20077;-72
2021/11/02 17:23:56;;;;;;;2.90;2.30;;;10.00;85.90;;;;;;5068417;28;20021;-71
2021/11/02 17:26:24;;;;;;;2.97;2.30;;;9.90;85.80;;;;;;5068396;28;20134;-71
2021/11/02 17:28:52;;;;;;;2.10;1.90;;;9.90;85.90;;;;;;5077538;28;20036;-71
2021/11/02 17:31:21;;;;;;;2.00;1.80;;;9.90;85.80;;;;;;5069740;28;20027;-72
2021/11/02 17:33:47;;;;;;;1.77;1.30;;;9.90;85.90;;;;;;5066767;28;20378;-72
2021/11/02 17:36:17;;;;;;;2.03;1.80;;;9.90;85.80;;;;;;5067496;28;20502;-71
2021/11/02 17:38:44;;;;;;;2.97;2.13;;;9.90;85.80;;;;;;5073397;28;20475;-72
2021/11/02 17:41:11;;;;;;;2.83;2.05;;;9.90;85.80;;;;;;5072872;28;20116;-72
2021/11/02 17:43:42;;;;;;;2.33;2.00;;;9.90;85.80;;;;;;5070237;28;20160;-72
2021/11/02 17:46:10;;;;;;;2.50;1.85;;;9.80;85.90;;;;;;5064945;28;20017;-70
2021/11/02 17:48:36;;;;;;;2.22;2.03;;;9.80;85.90;;;;;;5068976;28;20042;-72
2021/11/02 17:51:02;;;;;;;1.90;1.70;;;9.80;85.80;;;;;;5070084;28;20494;-71
2021/11/02 17:53:28;;;;;;;1.75;1.50;;;9.70;85.80;;;;;;5069233;28;20103;-71
2021/11/02 17:55:57;;;;;;;2.00;1.60;;;9.70;85.80;;;;;;5065343;28;20475;-71
2021/11/02 17:58:25;;;;;;;2.70;1.95;;;9.70;85.80;;;;;;5069325;28;20371;-70
2021/11/02 18:00:54;;;;;;;2.28;1.80;;;9.70;85.90;;;;;;5072441;28;20463;-69
2021/11/02 18:03:20;;;;;;;2.90;2.45;;;9.70;85.90;;;;;;5063159;28;20055;-71
2021/11/02 18:05:49;;;;;;;3.00;2.47;;;9.70;85.80;;;;;;5067002;28;20048;-68
2021/11/02 18:08:15;;;;;;;2.30;2.10;;;9.70;85.90;;;;;;5061255;28;20494;-69
2021/11/02 18:10:41;;;;;;;2.50;2.03;;;9.70;85.80;;;;;;5059881;28;20029;-71
2021/11/02 18:13:06;;;;;;;2.28;2.03;;;9.70;85.90;;;;;;5066171;28;20029;-71